sensor_id;sensor_type;location;lat;lon;timestamp;P1;durP1;ratioP1;P2;durP2;ratioP2
12232;SDS011;6179;51.748;8.728;2022-11-04T00:02:06;0.43;;;0.43;;
12232;SDS011;6179;51.748;8.728;2022-11-04T00:08:07;0.50;;;0.40;;
12232;SDS011;6179;51.748;8.728;2022-11-04T00:14:23;0.30;;;0.30;;
12232;SDS011;6179;51.748;8.728;2022-11-04T00:20:24;0.73;;;0.40;;
12232;SDS011;6179;51.748;8.728;2022-11-04T00:26:43;0.40;;;0.40;;
12232;SDS011;6179;51.748;8.728;2022-11-04T00:33:02;0.40;;;0.40;;
12232;SDS011;6179;51.748;8.728;2022-11-04T00:39:21;0.50;;;0.30;;
12232;SDS011;6179;51.748;8.728;2022-11-04T00:45:22;1.27;;;0.50;;
12232;SDS011;6179;51.748;8.728;2022-11-04T00:51:23;0.43;;;0.30;;
12232;SDS011;6179;51.748;8.728;2022-11-04T00:57:24;0.40;;;0.40;;
12232;SDS011;6179;51.748;8.728;2022-11-04T01:03:25;0.40;;;0.30;;
12232;SDS011;6179;51.748;8.728;2022-11-04T01:09:26;0.30;;;0.30;;
12232;SDS011;6179;51.748;8.728;2022-11-04T01:15:27;2.50;;;0.50;;
12232;SDS011;6179;51.748;8.728;2022-11-04T01:21:27;0.40;;;0.40;;
12232;SDS011;6179;51.748;8.728;2022-11-04T01:27:28;2.23;;;0.60;;
12232;SDS011;6179;51.748;8.728;2022-11-04T01:33:29;2.87;;;0.50;;
12232;SDS011;6179;51.748;8.728;2022-11-04T01:39:30;1.27;;;0.70;;
12232;SDS011;6179;51.748;8.728;2022-11-04T01:45:31;6.43;;;1.40;;
12232;SDS011;6179;51.748;8.728;2022-11-04T01:51:32;0.60;;;0.60;;
12232;SDS011;6179;51.748;8.728;2022-11-04T01:57:40;0.47;;;0.47;;
12232;SDS011;6179;51.748;8.728;2022-11-04T02:09:53;0.67;;;0.60;;
12232;SDS011;6179;51.748;8.728;2022-11-04T02:42:38;0.83;;;0.50;;
12232;SDS011;6179;51.748;8.728;2022-11-04T02:49:05;0.50;;;0.40;;
12232;SDS011;6179;51.748;8.728;2022-11-04T02:55:43;2.40;;;0.40;;
12232;SDS011;6179;51.748;8.728;2022-11-04T03:01:49;0.60;;;0.43;;
12232;SDS011;6179;51.748;8.728;2022-11-04T03:07:55;0.50;;;0.40;;
12232;SDS011;6179;51.748;8.728;2022-11-04T03:14:13;1.03;;;0.80;;
12232;SDS011;6179;51.748;8.728;2022-11-04T03:20:23;3.40;;;0.77;;
12232;SDS011;6179;51.748;8.728;2022-11-04T03:38:38;3.50;;;0.80;;
12232;SDS011;6179;51.748;8.728;2022-11-04T03:44:39;0.87;;;0.70;;
12232;SDS011;6179;51.748;8.728;2022-11-04T04:09:21;1.73;;;1.17;;
12232;SDS011;6179;51.748;8.728;2022-11-04T04:15:45;5.33;;;1.93;;
12232;SDS011;6179;51.748;8.728;2022-11-04T04:21:49;0.80;;;0.80;;
12232;SDS011;6179;51.748;8.728;2022-11-04T04:27:57;2.07;;;1.80;;
12232;SDS011;6179;51.748;8.728;2022-11-04T04:34:01;1.80;;;1.20;;
12232;SDS011;6179;51.748;8.728;2022-11-04T04:40:02;3.63;;;1.50;;
12232;SDS011;6179;51.748;8.728;2022-11-04T04:46:27;10.53;;;1.43;;
12232;SDS011;6179;51.748;8.728;2022-11-04T04:52:31;1.93;;;1.07;;
12232;SDS011;6179;51.748;8.728;2022-11-04T04:58:37;2.40;;;0.80;;
12232;SDS011;6179;51.748;8.728;2022-11-04T05:04:38;1.57;;;0.70;;
12232;SDS011;6179;51.748;8.728;2022-11-04T05:10:39;5.80;;;1.13;;
12232;SDS011;6179;51.748;8.728;2022-11-04T05:16:40;5.90;;;1.10;;
12232;SDS011;6179;51.748;8.728;2022-11-04T05:22:41;2.50;;;0.67;;
12232;SDS011;6179;51.748;8.728;2022-11-04T05:28:41;7.43;;;0.90;;
12232;SDS011;6179;51.748;8.728;2022-11-04T05:34:42;6.80;;;1.00;;
12232;SDS011;6179;51.748;8.728;2022-11-04T05:40:43;0.80;;;0.70;;
12232;SDS011;6179;51.748;8.728;2022-11-04T05:46:44;0.80;;;0.63;;
12232;SDS011;6179;51.748;8.728;2022-11-04T05:52:44;2.73;;;0.77;;
12232;SDS011;6179;51.748;8.728;2022-11-04T05:58:45;1.17;;;1.07;;
12232;SDS011;6179;51.748;8.728;2022-11-04T06:04:46;6.43;;;0.80;;
12232;SDS011;6179;51.748;8.728;2022-11-04T06:10:47;5.63;;;1.10;;
12232;SDS011;6179;51.748;8.728;2022-11-04T06:16:47;0.70;;;0.70;;
12232;SDS011;6179;51.748;8.728;2022-11-04T06:22:48;0.70;;;0.70;;
12232;SDS011;6179;51.748;8.728;2022-11-04T06:28:49;2.80;;;0.83;;
12232;SDS011;6179;51.748;8.728;2022-11-04T06:34:50;1.30;;;0.87;;
12232;SDS011;6179;51.748;8.728;2022-11-04T06:40:50;1.00;;;0.70;;
12232;SDS011;6179;51.748;8.728;2022-11-04T06:46:51;2.30;;;0.83;;
12232;SDS011;6179;51.748;8.728;2022-11-04T06:52:52;0.70;;;0.50;;
12232;SDS011;6179;51.748;8.728;2022-11-04T06:58:53;3.57;;;0.60;;
12232;SDS011;6179;51.748;8.728;2022-11-04T07:04:55;3.90;;;1.83;;
12232;SDS011;6179;51.748;8.728;2022-11-04T07:10:56;3.90;;;0.90;;
12232;SDS011;6179;51.748;8.728;2022-11-04T07:16:57;3.80;;;0.80;;
12232;SDS011;6179;51.748;8.728;2022-11-04T07:22:57;2.80;;;0.70;;
12232;SDS011;6179;51.748;8.728;2022-11-04T07:28:58;9.40;;;0.90;;
12232;SDS011;6179;51.748;8.728;2022-11-04T07:35:00;1.57;;;1.10;;
12232;SDS011;6179;51.748;8.728;2022-11-04T07:41:00;4.70;;;0.97;;
12232;SDS011;6179;51.748;8.728;2022-11-04T07:47:01;2.97;;;0.60;;
12232;SDS011;6179;51.748;8.728;2022-11-04T07:53:02;3.43;;;0.90;;
12232;SDS011;6179;51.748;8.728;2022-11-04T07:59:04;4.20;;;1.00;;
12232;SDS011;6179;51.748;8.728;2022-11-04T08:05:06;7.20;;;0.80;;
12232;SDS011;6179;51.748;8.728;2022-11-04T08:11:11;4.87;;;0.97;;
12232;SDS011;6179;51.748;8.728;2022-11-04T08:17:15;8.40;;;0.70;;
12232;SDS011;6179;51.748;8.728;2022-11-04T08:23:16;4.30;;;0.60;;
12232;SDS011;6179;51.748;8.728;2022-11-04T08:29:18;1.77;;;0.43;;
12232;SDS011;6179;51.748;8.728;2022-11-04T08:35:19;1.93;;;0.80;;
12232;SDS011;6179;51.748;8.728;2022-11-04T08:41:21;2.30;;;0.60;;
12232;SDS011;6179;51.748;8.728;2022-11-04T08:47:28;5.50;;;0.50;;
12232;SDS011;6179;51.748;8.728;2022-11-04T08:53:28;1.50;;;0.50;;
12232;SDS011;6179;51.748;8.728;2022-11-04T08:59:29;8.67;;;0.50;;
12232;SDS011;6179;51.748;8.728;2022-11-04T09:05:30;4.93;;;0.50;;
12232;SDS011;6179;51.748;8.728;2022-11-04T09:11:33;3.27;;;0.80;;
12232;SDS011;6179;51.748;8.728;2022-11-04T09:17:38;0.50;;;0.50;;
12232;SDS011;6179;51.748;8.728;2022-11-04T09:23:39;5.63;;;0.70;;
12232;SDS011;6179;51.748;8.728;2022-11-04T09:29:40;18.17;;;1.83;;
12232;SDS011;6179;51.748;8.728;2022-11-04T09:35:42;4.47;;;0.77;;
12232;SDS011;6179;51.748;8.728;2022-11-04T09:48:17;5.70;;;0.50;;
12232;SDS011;6179;51.748;8.728;2022-11-04T10:01:01;8.40;;;0.60;;
12232;SDS011;6179;51.748;8.728;2022-11-04T10:27:12;2.20;;;0.83;;
12232;SDS011;6179;51.748;8.728;2022-11-04T10:39:46;16.30;;;1.10;;
12232;SDS011;6179;51.748;8.728;2022-11-04T10:52:14;4.93;;;0.50;;
12232;SDS011;6179;51.748;8.728;2022-11-04T10:58:24;2.83;;;0.80;;
12232;SDS011;6179;51.748;8.728;2022-11-04T11:04:31;14.00;;;4.13;;
12232;SDS011;6179;51.748;8.728;2022-11-04T11:10:36;1.20;;;0.47;;
12232;SDS011;6179;51.748;8.728;2022-11-04T11:16:49;0.70;;;0.43;;
12232;SDS011;6179;51.748;8.728;2022-11-04T11:22:50;11.57;;;0.80;;
12232;SDS011;6179;51.748;8.728;2022-11-04T11:28:54;7.73;;;0.50;;
12232;SDS011;6179;51.748;8.728;2022-11-04T11:35:01;2.60;;;0.77;;
12232;SDS011;6179;51.748;8.728;2022-11-04T11:41:09;2.53;;;0.50;;
12232;SDS011;6179;51.748;8.728;2022-11-04T11:53:21;13.10;;;0.60;;
12232;SDS011;6179;51.748;8.728;2022-11-04T12:05:36;10.30;;;0.50;;
12232;SDS011;6179;51.748;8.728;2022-11-04T12:11:58;8.90;;;1.33;;
12232;SDS011;6179;51.748;8.728;2022-11-04T12:18:25;5.60;;;1.20;;
12232;SDS011;6179;51.748;8.728;2022-11-04T12:24:40;7.93;;;1.90;;
12232;SDS011;6179;51.748;8.728;2022-11-04T12:31:19;2.60;;;0.50;;
12232;SDS011;6179;51.748;8.728;2022-11-04T12:37:50;3.33;;;1.10;;
12232;SDS011;6179;51.748;8.728;2022-11-04T12:44:28;8.50;;;1.00;;
12232;SDS011;6179;51.748;8.728;2022-11-04T13:03:30;4.70;;;0.80;;
12232;SDS011;6179;51.748;8.728;2022-11-04T13:09:55;8.33;;;0.80;;
12232;SDS011;6179;51.748;8.728;2022-11-04T13:16:05;1.93;;;0.70;;
12232;SDS011;6179;51.748;8.728;2022-11-04T13:22:53;1.13;;;0.70;;
12232;SDS011;6179;51.748;8.728;2022-11-04T13:28:36;1.20;;;0.93;;
12232;SDS011;6179;51.748;8.728;2022-11-04T13:48:21;3.70;;;0.73;;
12232;SDS011;6179;51.748;8.728;2022-11-04T13:54:31;4.17;;;0.90;;
12232;SDS011;6179;51.748;8.728;2022-11-04T14:00:35;2.60;;;0.70;;
12232;SDS011;6179;51.748;8.728;2022-11-04T14:25:58;4.60;;;1.00;;
12232;SDS011;6179;51.748;8.728;2022-11-04T14:32:03;4.00;;;1.67;;
12232;SDS011;6179;51.748;8.728;2022-11-04T14:38:30;5.40;;;1.60;;
12232;SDS011;6179;51.748;8.728;2022-11-04T14:44:34;2.40;;;1.20;;
12232;SDS011;6179;51.748;8.728;2022-11-04T14:50:44;4.67;;;1.90;;
12232;SDS011;6179;51.748;8.728;2022-11-04T14:56:50;3.80;;;1.63;;
12232;SDS011;6179;51.748;8.728;2022-11-04T15:09:19;5.27;;;1.93;;
12232;SDS011;6179;51.748;8.728;2022-11-04T15:21:40;6.30;;;1.80;;
12232;SDS011;6179;51.748;8.728;2022-11-04T15:27:48;9.60;;;2.03;;
12232;SDS011;6179;51.748;8.728;2022-11-04T15:33:50;9.93;;;3.07;;
12232;SDS011;6179;51.748;8.728;2022-11-04T15:39:56;4.20;;;2.50;;
12232;SDS011;6179;51.748;8.728;2022-11-04T15:45:57;4.03;;;2.73;;
12232;SDS011;6179;51.748;8.728;2022-11-04T15:51:59;5.83;;;2.60;;
12232;SDS011;6179;51.748;8.728;2022-11-04T15:58:08;3.10;;;2.90;;
12232;SDS011;6179;51.748;8.728;2022-11-04T16:04:14;6.30;;;3.20;;
12232;SDS011;6179;51.748;8.728;2022-11-04T16:10:23;5.77;;;3.20;;
12232;SDS011;6179;51.748;8.728;2022-11-04T16:16:32;3.43;;;3.13;;
12232;SDS011;6179;51.748;8.728;2022-11-04T16:22:36;11.67;;;5.63;;
12232;SDS011;6179;51.748;8.728;2022-11-04T16:28:39;17.20;;;6.57;;
12232;SDS011;6179;51.748;8.728;2022-11-04T16:34:41;10.80;;;5.37;;
12232;SDS011;6179;51.748;8.728;2022-11-04T16:40:45;26.13;;;4.63;;
12232;SDS011;6179;51.748;8.728;2022-11-04T16:46:48;14.03;;;5.23;;
12232;SDS011;6179;51.748;8.728;2022-11-04T16:52:49;10.13;;;4.03;;
12232;SDS011;6179;51.748;8.728;2022-11-04T16:58:51;9.23;;;5.00;;
12232;SDS011;6179;51.748;8.728;2022-11-04T17:04:52;8.93;;;3.37;;
12232;SDS011;6179;51.748;8.728;2022-11-04T17:10:53;9.07;;;5.10;;
12232;SDS011;6179;51.748;8.728;2022-11-04T17:16:54;12.23;;;6.03;;
12232;SDS011;6179;51.748;8.728;2022-11-04T17:22:55;8.10;;;4.80;;
12232;SDS011;6179;51.748;8.728;2022-11-04T17:28:56;6.90;;;5.10;;
12232;SDS011;6179;51.748;8.728;2022-11-04T17:34:58;7.13;;;5.63;;
12232;SDS011;6179;51.748;8.728;2022-11-04T17:40:59;17.60;;;5.40;;
12232;SDS011;6179;51.748;8.728;2022-11-04T17:47:18;12.20;;;6.20;;
12232;SDS011;6179;51.748;8.728;2022-11-04T17:53:19;16.07;;;7.13;;
12232;SDS011;6179;51.748;8.728;2022-11-04T17:59:20;13.07;;;6.13;;
12232;SDS011;6179;51.748;8.728;2022-11-04T18:05:21;15.30;;;6.17;;
12232;SDS011;6179;51.748;8.728;2022-11-04T18:11:23;10.13;;;6.50;;
12232;SDS011;6179;51.748;8.728;2022-11-04T18:17:44;13.97;;;6.47;;
12232;SDS011;6179;51.748;8.728;2022-11-04T18:23:45;33.73;;;7.60;;
12232;SDS011;6179;51.748;8.728;2022-11-04T18:29:46;14.73;;;6.70;;
12232;SDS011;6179;51.748;8.728;2022-11-04T18:35:47;10.47;;;5.00;;
12232;SDS011;6179;51.748;8.728;2022-11-04T18:41:47;15.43;;;5.10;;
12232;SDS011;6179;51.748;8.728;2022-11-04T18:47:48;12.07;;;5.33;;
12232;SDS011;6179;51.748;8.728;2022-11-04T18:53:49;15.30;;;4.33;;
12232;SDS011;6179;51.748;8.728;2022-11-04T18:59:51;14.47;;;5.80;;
12232;SDS011;6179;51.748;8.728;2022-11-04T19:05:52;5.70;;;5.10;;
12232;SDS011;6179;51.748;8.728;2022-11-04T19:11:53;11.37;;;4.63;;
12232;SDS011;6179;51.748;8.728;2022-11-04T19:18:14;10.50;;;5.50;;
12232;SDS011;6179;51.748;8.728;2022-11-04T19:24:16;6.67;;;4.90;;
12232;SDS011;6179;51.748;8.728;2022-11-04T19:30:17;16.20;;;5.37;;
12232;SDS011;6179;51.748;8.728;2022-11-04T19:36:18;18.77;;;5.60;;
12232;SDS011;6179;51.748;8.728;2022-11-04T19:42:22;15.03;;;5.90;;
12232;SDS011;6179;51.748;8.728;2022-11-04T19:48:41;7.53;;;4.67;;
12232;SDS011;6179;51.748;8.728;2022-11-04T19:54:42;10.17;;;3.90;;
12232;SDS011;6179;51.748;8.728;2022-11-04T20:00:44;3.53;;;2.03;;
12232;SDS011;6179;51.748;8.728;2022-11-04T20:06:46;8.00;;;3.90;;
12232;SDS011;6179;51.748;8.728;2022-11-04T20:12:46;4.03;;;2.37;;
12232;SDS011;6179;51.748;8.728;2022-11-04T20:19:07;10.53;;;4.60;;
12232;SDS011;6179;51.748;8.728;2022-11-04T20:25:08;8.40;;;3.23;;
12232;SDS011;6179;51.748;8.728;2022-11-04T20:31:14;3.67;;;2.97;;
12232;SDS011;6179;51.748;8.728;2022-11-04T20:37:18;5.07;;;3.47;;
12232;SDS011;6179;51.748;8.728;2022-11-04T20:43:19;7.03;;;3.80;;
12232;SDS011;6179;51.748;8.728;2022-11-04T20:49:20;5.40;;;4.00;;
12232;SDS011;6179;51.748;8.728;2022-11-04T20:55:21;9.27;;;3.40;;
12232;SDS011;6179;51.748;8.728;2022-11-04T21:01:23;6.50;;;3.30;;
12232;SDS011;6179;51.748;8.728;2022-11-04T21:07:27;5.47;;;3.13;;
12232;SDS011;6179;51.748;8.728;2022-11-04T21:13:30;5.10;;;2.50;;
12232;SDS011;6179;51.748;8.728;2022-11-04T21:19:32;5.93;;;4.20;;
12232;SDS011;6179;51.748;8.728;2022-11-04T21:31:43;3.13;;;1.97;;
12232;SDS011;6179;51.748;8.728;2022-11-04T21:37:45;4.80;;;3.33;;
12232;SDS011;6179;51.748;8.728;2022-11-04T21:43:46;7.50;;;3.50;;
12232;SDS011;6179;51.748;8.728;2022-11-04T21:49:47;3.27;;;2.97;;
12232;SDS011;6179;51.748;8.728;2022-11-04T21:55:49;4.77;;;2.97;;
12232;SDS011;6179;51.748;8.728;2022-11-04T22:01:50;5.27;;;3.30;;
12232;SDS011;6179;51.748;8.728;2022-11-04T22:07:51;6.07;;;3.70;;
12232;SDS011;6179;51.748;8.728;2022-11-04T22:14:10;6.63;;;4.10;;
12232;SDS011;6179;51.748;8.728;2022-11-04T22:20:11;8.43;;;5.20;;
12232;SDS011;6179;51.748;8.728;2022-11-04T22:26:14;6.40;;;3.60;;
12232;SDS011;6179;51.748;8.728;2022-11-04T22:32:24;8.77;;;3.33;;
12232;SDS011;6179;51.748;8.728;2022-11-04T22:38:26;3.10;;;2.30;;
12232;SDS011;6179;51.748;8.728;2022-11-04T22:44:27;12.77;;;3.00;;
12232;SDS011;6179;51.748;8.728;2022-11-04T22:50:28;5.17;;;4.13;;
12232;SDS011;6179;51.748;8.728;2022-11-04T22:56:29;11.53;;;4.90;;
12232;SDS011;6179;51.748;8.728;2022-11-04T23:02:29;7.63;;;5.40;;
12232;SDS011;6179;51.748;8.728;2022-11-04T23:08:33;10.50;;;4.53;;
12232;SDS011;6179;51.748;8.728;2022-11-04T23:14:35;12.60;;;4.57;;
12232;SDS011;6179;51.748;8.728;2022-11-04T23:20:41;8.93;;;5.10;;
12232;SDS011;6179;51.748;8.728;2022-11-04T23:26:42;5.60;;;3.30;;
12232;SDS011;6179;51.748;8.728;2022-11-04T23:32:45;4.33;;;3.93;;
12232;SDS011;6179;51.748;8.728;2022-11-04T23:39:00;14.43;;;4.30;;
12232;SDS011;6179;51.748;8.728;2022-11-04T23:45:00;11.33;;;3.90;;
12232;SDS011;6179;51.748;8.728;2022-11-04T23:51:20;7.23;;;3.73;;
12232;SDS011;6179;51.748;8.728;2022-11-04T23:57:39;8.77;;;3.50;;
